Araijuku, Japan

11:19 AM JST on March 27, 2017 (GMT +0900)
大田区 | | Change Station

Elev 0 ft 35.58 °N, 139.71 °E | Updated 14 minutes ago

Overcast
Overcast
41.9 °F
Feels Like 42 °F
N
1.9
Wind Variable Wind from South
Gusts 5.6 mph

Today
High -- | Low -- °F
--% Chance of Precip.
Yesterday
High -- | Low -- °F
Precip. -- in
Pressure 29.74 in
Visibility 6.2 miles
Clouds Few 700 ft
Mostly Cloudy 1300 ft
Mostly Cloudy 2500 ft
Windchill 42 °F
Dew Point 39 °F
Humidity 90%
Rainfall 0.54 in
Snow Depth Not available.
5:35 AM 5:58 PM
Waning Crescent, 1% visible
METAR RJTT 270200Z 34021KT 9999 -SHRA FEW007 BKN013 BKN025 06/04 Q1007 TEMPO 35024G34KT BECMG FEW008 SCT013 RMK 1ST007 5CU013 6CU025 A2975
Pressure 29.74 in
Visibility 6.2 miles
Clouds Few 700 ft
Mostly Cloudy 1300 ft
Mostly Cloudy 2500 ft
Windchill 42 °F
Dew Point 39 °F
Humidity 90%
Rainfall 0.54 in
Snow Depth Not available.
5:35 AM 5:58 PM
Waning Crescent, 1% visible
METAR RJTT 270200Z 34021KT 9999 -SHRA FEW007 BKN013 BKN025 06/04 Q1007 TEMPO 35024G34KT BECMG FEW008 SCT013 RMK 1ST007 5CU013 6CU025 A2975

Get Severe Weather Alerts

Thanks for signing up!

Be on the lookout for a verification email in your inbox.

You'll start receiving the daily forecast at 8 AM.

×

10-Day Weather Forecast

No radar image for this location.
×

Almanac

Astronomy

Mar. 27, 2017 Rise Set
Actual Time
Civil Twilight
Nautical Twilight
Astronomical Twilight
Moon
Length of Visible Light
Length of Day
Tomorrow will be .
, % of the Moon is Illuminated

Today's Extremes

Country Highs Country Lows

Community

WunderPhotos

Upload Photos

1,962,540 photos uploaded!

WunderBlog® & News

Nearby

Air Quality

  Air Quality AQ Index Pollutant
Not available.

Snow Depth

Station Depth Elevation

Earthquake Activity

City Distance Mag. Time & Date
Minimum magnitude displayed is 2.5.

Earthquake Activity

City Distance Mag. Time & Date
Minimum magnitude displayed is 2.5.

Coastal Water Temperatures

Place Temperature

Stations

Nearby Weather Stations

Station Location Temp. Windchill Dew Point Humidity Wind Precip. Elev Updated Type